sensor_id;sensor_type;location;lat;lon;timestamp;P1;durP1;ratioP1;P2;durP2;ratioP2
36191;SDS011;22233;42.708;23.360;2023-06-26T00:01:28;19.45;;;15.73;;
36191;SDS011;22233;42.708;23.360;2023-06-26T00:03:57;21.67;;;16.67;;
36191;SDS011;22233;42.708;23.360;2023-06-26T00:06:23;19.42;;;15.45;;
36191;SDS011;22233;42.708;23.360;2023-06-26T00:08:50;18.23;;;15.60;;
36191;SDS011;22233;42.708;23.360;2023-06-26T00:11:17;19.30;;;15.77;;
36191;SDS011;22233;42.708;23.360;2023-06-26T00:13:43;20.55;;;14.85;;
36191;SDS011;22233;42.708;23.360;2023-06-26T00:16:08;21.73;;;14.45;;
36191;SDS011;22233;42.708;23.360;2023-06-26T00:18:34;22.05;;;14.95;;
36191;SDS011;22233;42.708;23.360;2023-06-26T00:20:59;18.25;;;14.10;;
36191;SDS011;22233;42.708;23.360;2023-06-26T00:23:25;19.45;;;14.18;;
36191;SDS011;22233;42.708;23.360;2023-06-26T00:25:52;15.55;;;13.93;;
36191;SDS011;22233;42.708;23.360;2023-06-26T00:28:18;18.83;;;14.63;;
36191;SDS011;22233;42.708;23.360;2023-06-26T00:30:43;17.70;;;14.82;;
36191;SDS011;22233;42.708;23.360;2023-06-26T00:33:08;17.08;;;13.85;;
36191;SDS011;22233;42.708;23.360;2023-06-26T00:35:34;20.60;;;13.73;;
36191;SDS011;22233;42.708;23.360;2023-06-26T00:38:00;15.77;;;13.38;;
36191;SDS011;22233;42.708;23.360;2023-06-26T00:40:26;18.98;;;14.27;;
36191;SDS011;22233;42.708;23.360;2023-06-26T00:42:52;16.35;;;13.35;;
36191;SDS011;22233;42.708;23.360;2023-06-26T00:45:18;15.65;;;12.63;;
36191;SDS011;22233;42.708;23.360;2023-06-26T00:47:44;18.17;;;13.10;;
36191;SDS011;22233;42.708;23.360;2023-06-26T00:50:09;18.88;;;13.13;;
36191;SDS011;22233;42.708;23.360;2023-06-26T00:52:35;15.10;;;12.38;;
36191;SDS011;22233;42.708;23.360;2023-06-26T00:55:01;18.38;;;13.77;;
36191;SDS011;22233;42.708;23.360;2023-06-26T00:57:27;13.77;;;12.30;;
36191;SDS011;22233;42.708;23.360;2023-06-26T00:59:52;17.83;;;12.63;;
36191;SDS011;22233;42.708;23.360;2023-06-26T01:02:18;14.95;;;12.90;;
36191;SDS011;22233;42.708;23.360;2023-06-26T01:04:46;13.77;;;11.60;;
36191;SDS011;22233;42.708;23.360;2023-06-26T01:07:15;14.65;;;11.68;;
36191;SDS011;22233;42.708;23.360;2023-06-26T01:09:44;16.35;;;11.32;;
36191;SDS011;22233;42.708;23.360;2023-06-26T01:12:11;13.80;;;11.85;;
36191;SDS011;22233;42.708;23.360;2023-06-26T01:14:37;14.30;;;11.05;;
36191;SDS011;22233;42.708;23.360;2023-06-26T01:17:02;13.02;;;10.95;;
36191;SDS011;22233;42.708;23.360;2023-06-26T01:19:29;14.10;;;11.63;;
36191;SDS011;22233;42.708;23.360;2023-06-26T01:22:00;12.95;;;10.95;;
36191;SDS011;22233;42.708;23.360;2023-06-26T01:24:39;13.52;;;11.05;;
36191;SDS011;22233;42.708;23.360;2023-06-26T01:27:09;14.90;;;11.23;;
36191;SDS011;22233;42.708;23.360;2023-06-26T01:29:37;13.45;;;10.55;;
36191;SDS011;22233;42.708;23.360;2023-06-26T01:32:03;14.53;;;11.63;;
36191;SDS011;22233;42.708;23.360;2023-06-26T01:34:30;11.43;;;10.27;;
36191;SDS011;22233;42.708;23.360;2023-06-26T01:36:56;14.23;;;11.50;;
36191;SDS011;22233;42.708;23.360;2023-06-26T01:39:21;12.05;;;10.75;;
36191;SDS011;22233;42.708;23.360;2023-06-26T01:41:46;12.73;;;11.20;;
36191;SDS011;22233;42.708;23.360;2023-06-26T01:44:30;13.43;;;11.20;;
36191;SDS011;22233;42.708;23.360;2023-06-26T01:47:01;13.65;;;11.30;;
36191;SDS011;22233;42.708;23.360;2023-06-26T01:52:09;16.05;;;11.65;;
36191;SDS011;22233;42.708;23.360;2023-06-26T01:55:03;13.23;;;10.63;;
36191;SDS011;22233;42.708;23.360;2023-06-26T01:57:35;12.60;;;10.70;;
36191;SDS011;22233;42.708;23.360;2023-06-26T02:02:29;14.50;;;11.13;;
36191;SDS011;22233;42.708;23.360;2023-06-26T02:04:54;13.80;;;11.27;;
36191;SDS011;22233;42.708;23.360;2023-06-26T02:07:20;13.60;;;11.18;;
36191;SDS011;22233;42.708;23.360;2023-06-26T02:09:45;12.40;;;10.35;;
36191;SDS011;22233;42.708;23.360;2023-06-26T02:12:11;14.27;;;11.57;;
36191;SDS011;22233;42.708;23.360;2023-06-26T02:14:36;13.02;;;10.85;;
36191;SDS011;22233;42.708;23.360;2023-06-26T02:17:02;13.73;;;10.70;;
36191;SDS011;22233;42.708;23.360;2023-06-26T02:19:27;15.05;;;11.75;;
36191;SDS011;22233;42.708;23.360;2023-06-26T02:21:53;12.57;;;10.90;;
36191;SDS011;22233;42.708;23.360;2023-06-26T02:24:19;15.57;;;11.88;;
36191;SDS011;22233;42.708;23.360;2023-06-26T02:26:45;17.58;;;12.23;;
36191;SDS011;22233;42.708;23.360;2023-06-26T02:29:11;13.82;;;11.45;;
36191;SDS011;22233;42.708;23.360;2023-06-26T02:31:36;14.25;;;10.80;;
36191;SDS011;22233;42.708;23.360;2023-06-26T02:34:02;14.95;;;12.02;;
36191;SDS011;22233;42.708;23.360;2023-06-26T02:36:28;15.27;;;12.23;;
36191;SDS011;22233;42.708;23.360;2023-06-26T02:38:53;14.07;;;12.30;;
36191;SDS011;22233;42.708;23.360;2023-06-26T02:41:19;13.82;;;12.45;;
36191;SDS011;22233;42.708;23.360;2023-06-26T02:43:44;14.10;;;12.70;;
36191;SDS011;22233;42.708;23.360;2023-06-26T02:46:09;13.93;;;12.48;;
36191;SDS011;22233;42.708;23.360;2023-06-26T02:48:35;16.10;;;13.80;;
36191;SDS011;22233;42.708;23.360;2023-06-26T02:51:00;14.85;;;13.13;;
36191;SDS011;22233;42.708;23.360;2023-06-26T02:53:26;15.15;;;13.52;;
36191;SDS011;22233;42.708;23.360;2023-06-26T02:55:51;15.82;;;14.05;;
36191;SDS011;22233;42.708;23.360;2023-06-26T02:58:16;15.30;;;12.90;;
36191;SDS011;22233;42.708;23.360;2023-06-26T03:00:42;16.65;;;14.88;;
36191;SDS011;22233;42.708;23.360;2023-06-26T03:03:07;15.95;;;14.25;;
36191;SDS011;22233;42.708;23.360;2023-06-26T03:05:33;17.13;;;14.60;;
36191;SDS011;22233;42.708;23.360;2023-06-26T03:07:58;18.48;;;15.48;;
36191;SDS011;22233;42.708;23.360;2023-06-26T03:10:24;17.27;;;15.43;;
36191;SDS011;22233;42.708;23.360;2023-06-26T03:12:49;17.77;;;15.95;;
36191;SDS011;22233;42.708;23.360;2023-06-26T03:15:14;17.77;;;15.63;;
36191;SDS011;22233;42.708;23.360;2023-06-26T03:17:40;19.60;;;16.55;;
36191;SDS011;22233;42.708;23.360;2023-06-26T03:20:05;22.60;;;16.25;;
36191;SDS011;22233;42.708;23.360;2023-06-26T03:22:32;18.63;;;16.05;;
36191;SDS011;22233;42.708;23.360;2023-06-26T03:24:58;18.00;;;15.80;;
36191;SDS011;22233;42.708;23.360;2023-06-26T03:27:24;18.73;;;16.73;;
36191;SDS011;22233;42.708;23.360;2023-06-26T03:29:50;17.05;;;15.25;;
36191;SDS011;22233;42.708;23.360;2023-06-26T03:32:16;19.77;;;16.33;;
36191;SDS011;22233;42.708;23.360;2023-06-26T03:34:41;20.15;;;17.95;;
36191;SDS011;22233;42.708;23.360;2023-06-26T03:37:07;20.50;;;16.77;;
36191;SDS011;22233;42.708;23.360;2023-06-26T03:39:32;20.73;;;17.42;;
36191;SDS011;22233;42.708;23.360;2023-06-26T03:41:58;20.17;;;17.33;;
36191;SDS011;22233;42.708;23.360;2023-06-26T03:44:26;22.92;;;18.35;;
36191;SDS011;22233;42.708;23.360;2023-06-26T03:46:51;25.25;;;18.70;;
36191;SDS011;22233;42.708;23.360;2023-06-26T03:49:17;20.75;;;16.70;;
36191;SDS011;22233;42.708;23.360;2023-06-26T03:51:43;19.90;;;16.63;;
36191;SDS011;22233;42.708;23.360;2023-06-26T03:54:09;20.63;;;17.17;;
36191;SDS011;22233;42.708;23.360;2023-06-26T03:56:34;20.38;;;17.42;;
36191;SDS011;22233;42.708;23.360;2023-06-26T03:58:59;19.27;;;17.27;;
36191;SDS011;22233;42.708;23.360;2023-06-26T04:01:25;19.38;;;17.27;;
36191;SDS011;22233;42.708;23.360;2023-06-26T04:03:50;19.98;;;16.98;;
36191;SDS011;22233;42.708;23.360;2023-06-26T04:06:16;20.40;;;17.35;;
36191;SDS011;22233;42.708;23.360;2023-06-26T04:08:41;20.05;;;17.02;;
36191;SDS011;22233;42.708;23.360;2023-06-26T04:11:07;19.27;;;17.30;;
36191;SDS011;22233;42.708;23.360;2023-06-26T04:13:32;20.80;;;17.55;;
36191;SDS011;22233;42.708;23.360;2023-06-26T04:15:57;19.55;;;17.45;;
36191;SDS011;22233;42.708;23.360;2023-06-26T04:18:23;21.40;;;17.15;;
36191;SDS011;22233;42.708;23.360;2023-06-26T04:23:32;19.52;;;17.42;;
36191;SDS011;22233;42.708;23.360;2023-06-26T04:25:58;20.23;;;17.42;;
36191;SDS011;22233;42.708;23.360;2023-06-26T04:28:24;19.60;;;17.60;;
36191;SDS011;22233;42.708;23.360;2023-06-26T04:30:49;17.60;;;15.70;;
36191;SDS011;22233;42.708;23.360;2023-06-26T04:33:15;20.05;;;16.98;;
36191;SDS011;22233;42.708;23.360;2023-06-26T04:35:40;22.52;;;17.02;;
36191;SDS011;22233;42.708;23.360;2023-06-26T04:38:06;22.23;;;16.27;;
36191;SDS011;22233;42.708;23.360;2023-06-26T04:40:31;21.10;;;16.35;;
36191;SDS011;22233;42.708;23.360;2023-06-26T04:42:57;18.20;;;16.42;;
36191;SDS011;22233;42.708;23.360;2023-06-26T04:45:22;21.00;;;16.20;;
36191;SDS011;22233;42.708;23.360;2023-06-26T04:47:47;20.70;;;16.83;;
36191;SDS011;22233;42.708;23.360;2023-06-26T04:50:13;18.30;;;16.38;;
36191;SDS011;22233;42.708;23.360;2023-06-26T04:52:38;21.42;;;16.77;;
36191;SDS011;22233;42.708;23.360;2023-06-26T04:55:04;19.30;;;17.27;;
36191;SDS011;22233;42.708;23.360;2023-06-26T04:57:30;18.67;;;16.52;;
36191;SDS011;22233;42.708;23.360;2023-06-26T04:59:55;21.88;;;17.23;;
36191;SDS011;22233;42.708;23.360;2023-06-26T05:02:21;19.95;;;16.40;;
36191;SDS011;22233;42.708;23.360;2023-06-26T05:04:46;19.48;;;17.42;;
36191;SDS011;22233;42.708;23.360;2023-06-26T05:07:12;21.40;;;17.25;;
36191;SDS011;22233;42.708;23.360;2023-06-26T05:09:37;18.83;;;16.38;;
36191;SDS011;22233;42.708;23.360;2023-06-26T05:12:03;18.08;;;15.23;;
36191;SDS011;22233;42.708;23.360;2023-06-26T05:14:28;17.45;;;15.43;;
36191;SDS011;22233;42.708;23.360;2023-06-26T05:16:54;19.35;;;15.35;;
36191;SDS011;22233;42.708;23.360;2023-06-26T05:19:19;17.88;;;15.80;;
36191;SDS011;22233;42.708;23.360;2023-06-26T05:21:45;17.05;;;15.18;;
36191;SDS011;22233;42.708;23.360;2023-06-26T05:24:11;16.65;;;14.85;;
36191;SDS011;22233;42.708;23.360;2023-06-26T05:26:40;16.83;;;15.07;;
36191;SDS011;22233;42.708;23.360;2023-06-26T05:29:06;17.50;;;15.65;;
36191;SDS011;22233;42.708;23.360;2023-06-26T05:31:32;16.85;;;15.07;;
36191;SDS011;22233;42.708;23.360;2023-06-26T05:34:00;17.33;;;14.40;;
36191;SDS011;22233;42.708;23.360;2023-06-26T05:36:28;18.33;;;14.65;;
36191;SDS011;22233;42.708;23.360;2023-06-26T05:38:58;17.23;;;13.85;;
36191;SDS011;22233;42.708;23.360;2023-06-26T05:41:23;15.65;;;14.15;;
36191;SDS011;22233;42.708;23.360;2023-06-26T05:43:49;15.77;;;14.10;;
36191;SDS011;22233;42.708;23.360;2023-06-26T05:46:14;15.88;;;14.05;;
36191;SDS011;22233;42.708;23.360;2023-06-26T05:48:40;14.98;;;12.68;;
36191;SDS011;22233;42.708;23.360;2023-06-26T05:51:06;15.43;;;13.82;;
36191;SDS011;22233;42.708;23.360;2023-06-26T05:53:31;13.88;;;12.32;;
36191;SDS011;22233;42.708;23.360;2023-06-26T05:55:57;14.57;;;12.95;;
36191;SDS011;22233;42.708;23.360;2023-06-26T05:58:23;17.27;;;14.23;;
36191;SDS011;22233;42.708;23.360;2023-06-26T06:00:54;17.55;;;13.57;;
36191;SDS011;22233;42.708;23.360;2023-06-26T06:03:20;16.40;;;13.05;;
36191;SDS011;22233;42.708;23.360;2023-06-26T06:05:45;16.52;;;13.82;;
36191;SDS011;22233;42.708;23.360;2023-06-26T06:08:11;14.77;;;13.23;;
36191;SDS011;22233;42.708;23.360;2023-06-26T06:10:36;15.88;;;13.45;;
36191;SDS011;22233;42.708;23.360;2023-06-26T06:13:01;15.40;;;12.25;;
36191;SDS011;22233;42.708;23.360;2023-06-26T06:15:27;15.35;;;12.70;;
36191;SDS011;22233;42.708;23.360;2023-06-26T06:17:52;14.35;;;12.85;;
36191;SDS011;22233;42.708;23.360;2023-06-26T06:20:18;14.70;;;13.18;;
36191;SDS011;22233;42.708;23.360;2023-06-26T06:22:46;13.75;;;12.05;;
36191;SDS011;22233;42.708;23.360;2023-06-26T06:25:13;16.70;;;13.32;;
36191;SDS011;22233;42.708;23.360;2023-06-26T06:27:39;14.98;;;12.32;;
36191;SDS011;22233;42.708;23.360;2023-06-26T06:30:04;15.57;;;13.23;;
36191;SDS011;22233;42.708;23.360;2023-06-26T06:32:30;14.02;;;12.52;;
36191;SDS011;22233;42.708;23.360;2023-06-26T06:34:56;13.88;;;12.48;;
36191;SDS011;22233;42.708;23.360;2023-06-26T06:37:22;14.27;;;12.88;;
36191;SDS011;22233;42.708;23.360;2023-06-26T06:39:47;13.98;;;12.50;;
36191;SDS011;22233;42.708;23.360;2023-06-26T06:42:13;14.27;;;10.90;;
36191;SDS011;22233;42.708;23.360;2023-06-26T06:44:38;11.60;;;10.40;;
36191;SDS011;22233;42.708;23.360;2023-06-26T06:47:04;14.38;;;11.25;;
36191;SDS011;22233;42.708;23.360;2023-06-26T06:49:29;12.57;;;11.23;;
36191;SDS011;22233;42.708;23.360;2023-06-26T06:51:55;13.30;;;10.90;;
36191;SDS011;22233;42.708;23.360;2023-06-26T06:54:20;14.35;;;9.82;;
36191;SDS011;22233;42.708;23.360;2023-06-26T06:56:46;11.32;;;10.20;;
36191;SDS011;22233;42.708;23.360;2023-06-26T06:59:11;11.93;;;10.57;;
36191;SDS011;22233;42.708;23.360;2023-06-26T07:01:37;9.85;;;8.80;;
36191;SDS011;22233;42.708;23.360;2023-06-26T07:04:02;9.90;;;8.90;;
36191;SDS011;22233;42.708;23.360;2023-06-26T07:06:29;9.35;;;8.35;;
36191;SDS011;22233;42.708;23.360;2023-06-26T07:08:54;12.57;;;9.02;;
36191;SDS011;22233;42.708;23.360;2023-06-26T07:11:20;11.40;;;10.30;;
36191;SDS011;22233;42.708;23.360;2023-06-26T07:13:45;12.82;;;8.82;;
36191;SDS011;22233;42.708;23.360;2023-06-26T07:16:11;10.05;;;9.05;;
36191;SDS011;22233;42.708;23.360;2023-06-26T07:18:37;12.38;;;9.02;;
36191;SDS011;22233;42.708;23.360;2023-06-26T07:21:03;10.52;;;9.43;;
36191;SDS011;22233;42.708;23.360;2023-06-26T07:23:29;12.65;;;9.95;;
36191;SDS011;22233;42.708;23.360;2023-06-26T07:25:54;9.70;;;8.07;;
36191;SDS011;22233;42.708;23.360;2023-06-26T07:28:19;10.05;;;9.05;;
36191;SDS011;22233;42.708;23.360;2023-06-26T07:30:45;10.60;;;9.45;;
36191;SDS011;22233;42.708;23.360;2023-06-26T07:33:10;9.55;;;8.55;;
36191;SDS011;22233;42.708;23.360;2023-06-26T07:35:36;8.13;;;7.20;;
36191;SDS011;22233;42.708;23.360;2023-06-26T07:38:01;9.43;;;7.15;;
36191;SDS011;22233;42.708;23.360;2023-06-26T07:40:26;8.52;;;7.47;;
36191;SDS011;22233;42.708;23.360;2023-06-26T07:42:52;7.95;;;7.00;;
36191;SDS011;22233;42.708;23.360;2023-06-26T07:45:19;9.88;;;8.25;;
36191;SDS011;22233;42.708;23.360;2023-06-26T07:47:45;8.43;;;7.13;;
36191;SDS011;22233;42.708;23.360;2023-06-26T07:50:11;6.90;;;6.30;;
36191;SDS011;22233;42.708;23.360;2023-06-26T07:52:36;7.30;;;6.50;;
36191;SDS011;22233;42.708;23.360;2023-06-26T07:55:02;7.22;;;5.60;;
36191;SDS011;22233;42.708;23.360;2023-06-26T07:57:29;6.50;;;5.90;;
36191;SDS011;22233;42.708;23.360;2023-06-26T07:59:54;7.85;;;5.90;;
36191;SDS011;22233;42.708;23.360;2023-06-26T08:02:20;7.20;;;6.50;;
36191;SDS011;22233;42.708;23.360;2023-06-26T08:04:46;6.75;;;6.05;;
36191;SDS011;22233;42.708;23.360;2023-06-26T08:07:11;6.65;;;5.95;;
36191;SDS011;22233;42.708;23.360;2023-06-26T08:09:38;7.80;;;5.38;;
36191;SDS011;22233;42.708;23.360;2023-06-26T08:12:04;7.45;;;5.63;;
36191;SDS011;22233;42.708;23.360;2023-06-26T08:14:30;7.38;;;6.15;;
36191;SDS011;22233;42.708;23.360;2023-06-26T08:16:56;8.93;;;5.53;;
36191;SDS011;22233;42.708;23.360;2023-06-26T08:19:22;6.28;;;5.32;;
36191;SDS011;22233;42.708;23.360;2023-06-26T08:21:47;7.10;;;5.07;;
36191;SDS011;22233;42.708;23.360;2023-06-26T08:24:13;6.95;;;6.18;;
36191;SDS011;22233;42.708;23.360;2023-06-26T08:26:38;8.25;;;6.20;;
36191;SDS011;22233;42.708;23.360;2023-06-26T08:29:04;7.45;;;6.63;;
36191;SDS011;22233;42.708;23.360;2023-06-26T08:31:33;10.45;;;7.28;;
36191;SDS011;22233;42.708;23.360;2023-06-26T08:33:59;9.90;;;6.40;;
36191;SDS011;22233;42.708;23.360;2023-06-26T08:36:25;11.18;;;5.97;;
36191;SDS011;22233;42.708;23.360;2023-06-26T08:38:50;6.88;;;6.18;;
36191;SDS011;22233;42.708;23.360;2023-06-26T08:41:16;8.10;;;5.95;;
36191;SDS011;22233;42.708;23.360;2023-06-26T08:43:41;7.50;;;5.13;;
36191;SDS011;22233;42.708;23.360;2023-06-26T08:46:07;7.00;;;5.82;;
36191;SDS011;22233;42.708;23.360;2023-06-26T08:48:33;5.60;;;5.10;;
36191;SDS011;22233;42.708;23.360;2023-06-26T08:51:05;6.50;;;5.03;;
36191;SDS011;22233;42.708;23.360;2023-06-26T08:54:19;6.03;;;5.22;;
36191;SDS011;22233;42.708;23.360;2023-06-26T08:56:32;6.35;;;5.65;;
36191;SDS011;22233;42.708;23.360;2023-06-26T08:59:01;9.90;;;6.60;;
36191;SDS011;22233;42.708;23.360;2023-06-26T09:01:26;5.43;;;4.90;;
36191;SDS011;22233;42.708;23.360;2023-06-26T09:03:52;6.80;;;6.15;;
36191;SDS011;22233;42.708;23.360;2023-06-26T09:06:18;6.97;;;5.75;;
36191;SDS011;22233;42.708;23.360;2023-06-26T09:08:44;9.18;;;6.05;;
36191;SDS011;22233;42.708;23.360;2023-06-26T09:11:09;6.75;;;5.25;;
36191;SDS011;22233;42.708;23.360;2023-06-26T09:13:35;7.03;;;5.60;;
36191;SDS011;22233;42.708;23.360;2023-06-26T09:16:04;8.68;;;5.20;;
36191;SDS011;22233;42.708;23.360;2023-06-26T09:18:33;7.05;;;5.72;;
36191;SDS011;22233;42.708;23.360;2023-06-26T09:20:58;7.93;;;4.63;;
36191;SDS011;22233;42.708;23.360;2023-06-26T09:23:24;5.25;;;4.75;;
36191;SDS011;22233;42.708;23.360;2023-06-26T09:25:51;5.50;;;4.70;;
36191;SDS011;22233;42.708;23.360;2023-06-26T09:28:16;5.50;;;4.93;;
36191;SDS011;22233;42.708;23.360;2023-06-26T09:30:42;5.38;;;4.80;;
36191;SDS011;22233;42.708;23.360;2023-06-26T09:33:14;9.77;;;5.95;;
36191;SDS011;22233;42.708;23.360;2023-06-26T09:35:40;8.93;;;5.75;;
36191;SDS011;22233;42.708;23.360;2023-06-26T09:38:06;13.98;;;4.90;;
36191;SDS011;22233;42.708;23.360;2023-06-26T09:40:32;6.30;;;5.07;;
36191;SDS011;22233;42.708;23.360;2023-06-26T09:43:03;5.40;;;4.75;;
36191;SDS011;22233;42.708;23.360;2023-06-26T09:45:33;4.97;;;4.47;;
36191;SDS011;22233;42.708;23.360;2023-06-26T09:47:59;5.97;;;4.00;;
36191;SDS011;22233;42.708;23.360;2023-06-26T09:50:27;5.57;;;4.95;;
36191;SDS011;22233;42.708;23.360;2023-06-26T09:52:53;6.63;;;4.47;;
36191;SDS011;22233;42.708;23.360;2023-06-26T09:55:19;5.20;;;3.95;;
36191;SDS011;22233;42.708;23.360;2023-06-26T09:57:47;4.95;;;3.92;;
36191;SDS011;22233;42.708;23.360;2023-06-26T10:00:13;4.68;;;4.13;;
36191;SDS011;22233;42.708;23.360;2023-06-26T10:02:39;6.57;;;4.13;;
36191;SDS011;22233;42.708;23.360;2023-06-26T10:05:04;5.13;;;4.20;;
36191;SDS011;22233;42.708;23.360;2023-06-26T10:07:30;8.13;;;4.30;;
36191;SDS011;22233;42.708;23.360;2023-06-26T10:09:56;5.93;;;4.72;;
36191;SDS011;22233;42.708;23.360;2023-06-26T10:12:30;5.93;;;4.32;;
36191;SDS011;22233;42.708;23.360;2023-06-26T10:14:56;4.60;;;4.10;;
36191;SDS011;22233;42.708;23.360;2023-06-26T10:17:24;5.63;;;4.72;;
36191;SDS011;22233;42.708;23.360;2023-06-26T10:19:53;9.20;;;4.65;;
36191;SDS011;22233;42.708;23.360;2023-06-26T10:22:21;7.38;;;4.47;;
36191;SDS011;22233;42.708;23.360;2023-06-26T10:24:52;5.13;;;4.20;;
36191;SDS011;22233;42.708;23.360;2023-06-26T10:27:24;7.97;;;4.75;;
36191;SDS011;22233;42.708;23.360;2023-06-26T10:29:56;5.60;;;4.63;;
36191;SDS011;22233;42.708;23.360;2023-06-26T10:32:27;7.07;;;5.22;;
36191;SDS011;22233;42.708;23.360;2023-06-26T10:34:54;6.20;;;4.30;;
36191;SDS011;22233;42.708;23.360;2023-06-26T10:37:21;5.55;;;4.63;;
36191;SDS011;22233;42.708;23.360;2023-06-26T10:40:06;5.13;;;4.60;;
36191;SDS011;22233;42.708;23.360;2023-06-26T10:42:36;10.85;;;6.38;;
36191;SDS011;22233;42.708;23.360;2023-06-26T10:45:16;9.90;;;6.53;;
36191;SDS011;22233;42.708;23.360;2023-06-26T10:47:48;10.68;;;6.43;;
36191;SDS011;22233;42.708;23.360;2023-06-26T10:50:28;11.95;;;6.65;;
36191;SDS011;22233;42.708;23.360;2023-06-26T10:58:31;9.38;;;5.18;;
36191;SDS011;22233;42.708;23.360;2023-06-26T11:06:32;6.28;;;4.13;;
36191;SDS011;22233;42.708;23.360;2023-06-26T11:14:18;8.52;;;5.32;;
36191;SDS011;22233;42.708;23.360;2023-06-26T11:16:45;10.88;;;4.85;;
36191;SDS011;22233;42.708;23.360;2023-06-26T11:19:10;6.38;;;4.53;;
36191;SDS011;22233;42.708;23.360;2023-06-26T11:21:40;8.63;;;4.93;;
36191;SDS011;22233;42.708;23.360;2023-06-26T11:24:06;5.85;;;4.20;;
36191;SDS011;22233;42.708;23.360;2023-06-26T11:26:40;5.22;;;4.70;;
36191;SDS011;22233;42.708;23.360;2023-06-26T11:29:09;5.93;;;4.85;;
36191;SDS011;22233;42.708;23.360;2023-06-26T11:31:39;6.27;;;5.30;;
36191;SDS011;22233;42.708;23.360;2023-06-26T11:34:07;5.95;;;5.35;;
36191;SDS011;22233;42.708;23.360;2023-06-26T11:36:35;5.22;;;4.63;;
36191;SDS011;22233;42.708;23.360;2023-06-26T11:39:02;9.20;;;5.53;;
36191;SDS011;22233;42.708;23.360;2023-06-26T11:41:31;11.82;;;5.80;;
36191;SDS011;22233;42.708;23.360;2023-06-26T11:44:07;5.10;;;4.22;;
36191;SDS011;22233;42.708;23.360;2023-06-26T11:46:34;8.00;;;5.38;;
36191;SDS011;22233;42.708;23.360;2023-06-26T11:49:04;5.00;;;4.37;;
36191;SDS011;22233;42.708;23.360;2023-06-26T11:51:30;5.70;;;4.82;;
36191;SDS011;22233;42.708;23.360;2023-06-26T11:53:55;5.15;;;4.57;;
36191;SDS011;22233;42.708;23.360;2023-06-26T11:56:21;6.97;;;5.38;;
36191;SDS011;22233;42.708;23.360;2023-06-26T12:01:30;5.70;;;4.50;;
36191;SDS011;22233;42.708;23.360;2023-06-26T12:04:08;6.43;;;5.25;;
36191;SDS011;22233;42.708;23.360;2023-06-26T12:06:35;6.78;;;4.95;;
36191;SDS011;22233;42.708;23.360;2023-06-26T12:09:04;6.10;;;4.68;;
36191;SDS011;22233;42.708;23.360;2023-06-26T12:11:31;5.10;;;4.38;;
36191;SDS011;22233;42.708;23.360;2023-06-26T12:13:59;6.55;;;5.28;;
36191;SDS011;22233;42.708;23.360;2023-06-26T12:16:27;5.68;;;4.60;;
36191;SDS011;22233;42.708;23.360;2023-06-26T12:19:00;8.65;;;4.88;;
36191;SDS011;22233;42.708;23.360;2023-06-26T12:21:28;9.48;;;5.03;;
36191;SDS011;22233;42.708;23.360;2023-06-26T12:24:17;5.82;;;4.78;;
36191;SDS011;22233;42.708;23.360;2023-06-26T12:26:50;5.97;;;4.15;;
36191;SDS011;22233;42.708;23.360;2023-06-26T12:29:24;5.82;;;4.40;;
36191;SDS011;22233;42.708;23.360;2023-06-26T12:31:56;5.60;;;4.93;;
36191;SDS011;22233;42.708;23.360;2023-06-26T12:34:28;6.88;;;4.70;;
36191;SDS011;22233;42.708;23.360;2023-06-26T12:37:01;4.67;;;4.27;;
36191;SDS011;22233;42.708;23.360;2023-06-26T12:39:28;6.43;;;5.00;;
36191;SDS011;22233;42.708;23.360;2023-06-26T12:41:55;5.22;;;4.30;;
36191;SDS011;22233;42.708;23.360;2023-06-26T12:44:25;5.85;;;4.88;;
36191;SDS011;22233;42.708;23.360;2023-06-26T12:46:56;7.20;;;4.93;;
36191;SDS011;22233;42.708;23.360;2023-06-26T12:49:29;5.47;;;4.88;;
36191;SDS011;22233;42.708;23.360;2023-06-26T12:51:56;7.90;;;5.30;;
36191;SDS011;22233;42.708;23.360;2023-06-26T12:54:21;7.10;;;5.10;;
36191;SDS011;22233;42.708;23.360;2023-06-26T12:56:47;6.03;;;4.47;;
36191;SDS011;22233;42.708;23.360;2023-06-26T12:59:12;7.13;;;5.10;;
36191;SDS011;22233;42.708;23.360;2023-06-26T13:01:38;7.18;;;5.50;;
36191;SDS011;22233;42.708;23.360;2023-06-26T13:04:03;7.70;;;5.38;;
36191;SDS011;22233;42.708;23.360;2023-06-26T13:06:29;9.18;;;5.15;;
36191;SDS011;22233;42.708;23.360;2023-06-26T13:08:54;9.88;;;4.95;;
36191;SDS011;22233;42.708;23.360;2023-06-26T13:11:19;6.97;;;5.07;;
36191;SDS011;22233;42.708;23.360;2023-06-26T13:13:46;5.27;;;4.77;;
36191;SDS011;22233;42.708;23.360;2023-06-26T13:16:11;5.95;;;4.50;;
36191;SDS011;22233;42.708;23.360;2023-06-26T13:18:37;6.03;;;4.70;;
36191;SDS011;22233;42.708;23.360;2023-06-26T13:21:02;7.63;;;4.85;;
36191;SDS011;22233;42.708;23.360;2023-06-26T13:23:28;6.43;;;4.50;;
36191;SDS011;22233;42.708;23.360;2023-06-26T13:25:53;6.90;;;4.50;;
36191;SDS011;22233;42.708;23.360;2023-06-26T13:28:19;7.00;;;4.57;;
36191;SDS011;22233;42.708;23.360;2023-06-26T13:30:44;8.68;;;4.50;;
36191;SDS011;22233;42.708;23.360;2023-06-26T13:33:09;5.35;;;4.35;;
36191;SDS011;22233;42.708;23.360;2023-06-26T13:35:35;6.03;;;4.78;;
36191;SDS011;22233;42.708;23.360;2023-06-26T13:38:01;5.43;;;4.60;;
36191;SDS011;22233;42.708;23.360;2023-06-26T13:40:26;7.22;;;4.57;;
36191;SDS011;22233;42.708;23.360;2023-06-26T13:42:52;5.45;;;4.45;;
36191;SDS011;22233;42.708;23.360;2023-06-26T13:45:17;5.00;;;4.07;;
36191;SDS011;22233;42.708;23.360;2023-06-26T13:47:43;5.60;;;4.80;;
36191;SDS011;22233;42.708;23.360;2023-06-26T13:50:09;5.53;;;4.78;;
36191;SDS011;22233;42.708;23.360;2023-06-26T13:52:35;6.65;;;4.50;;
36191;SDS011;22233;42.708;23.360;2023-06-26T13:55:00;6.35;;;4.68;;
36191;SDS011;22233;42.708;23.360;2023-06-26T13:57:29;4.28;;;3.88;;
36191;SDS011;22233;42.708;23.360;2023-06-26T13:59:55;5.05;;;4.18;;
36191;SDS011;22233;42.708;23.360;2023-06-26T14:02:21;6.05;;;4.32;;
36191;SDS011;22233;42.708;23.360;2023-06-26T14:04:47;5.65;;;4.43;;
36191;SDS011;22233;42.708;23.360;2023-06-26T14:07:12;6.05;;;4.70;;
36191;SDS011;22233;42.708;23.360;2023-06-26T14:09:39;6.68;;;4.90;;
36191;SDS011;22233;42.708;23.360;2023-06-26T14:12:05;7.15;;;5.00;;
36191;SDS011;22233;42.708;23.360;2023-06-26T14:14:31;8.38;;;4.15;;
36191;SDS011;22233;42.708;23.360;2023-06-26T14:16:56;6.03;;;4.80;;
36191;SDS011;22233;42.708;23.360;2023-06-26T14:19:21;10.82;;;5.43;;
36191;SDS011;22233;42.708;23.360;2023-06-26T14:21:47;5.43;;;4.65;;
36191;SDS011;22233;42.708;23.360;2023-06-26T14:24:12;7.43;;;4.85;;
36191;SDS011;22233;42.708;23.360;2023-06-26T14:26:37;5.65;;;5.05;;
36191;SDS011;22233;42.708;23.360;2023-06-26T14:29:03;6.53;;;5.45;;
36191;SDS011;22233;42.708;23.360;2023-06-26T14:31:29;9.93;;;5.28;;
36191;SDS011;22233;42.708;23.360;2023-06-26T14:33:54;7.97;;;5.63;;
36191;SDS011;22233;42.708;23.360;2023-06-26T14:36:20;14.50;;;6.78;;
36191;SDS011;22233;42.708;23.360;2023-06-26T14:38:45;10.75;;;6.88;;
36191;SDS011;22233;42.708;23.360;2023-06-26T14:41:11;7.40;;;6.03;;
36191;SDS011;22233;42.708;23.360;2023-06-26T14:43:37;6.40;;;5.80;;
36191;SDS011;22233;42.708;23.360;2023-06-26T14:46:03;7.27;;;6.47;;